sensor_id;sensor_type;location;lat;lon;timestamp;P1;durP1;ratioP1;P2;durP2;ratioP2
68384;SDS011;55336;43.062;25.626;2023-12-04T00:01:53;1.25;;;1.25;;
68384;SDS011;55336;43.062;25.626;2023-12-04T00:04:18;1.10;;;1.10;;
68384;SDS011;55336;43.062;25.626;2023-12-04T00:06:44;1.60;;;1.60;;
68384;SDS011;55336;43.062;25.626;2023-12-04T00:09:10;1.20;;;1.20;;
68384;SDS011;55336;43.062;25.626;2023-12-04T00:11:36;1.20;;;1.20;;
68384;SDS011;55336;43.062;25.626;2023-12-04T00:14:02;1.25;;;1.25;;
68384;SDS011;55336;43.062;25.626;2023-12-04T00:16:28;1.25;;;1.25;;
68384;SDS011;55336;43.062;25.626;2023-12-04T00:18:53;1.23;;;1.23;;
68384;SDS011;55336;43.062;25.626;2023-12-04T00:21:19;1.00;;;1.00;;
68384;SDS011;55336;43.062;25.626;2023-12-04T00:23:45;1.02;;;1.02;;
68384;SDS011;55336;43.062;25.626;2023-12-04T00:26:11;1.00;;;1.00;;
68384;SDS011;55336;43.062;25.626;2023-12-04T00:28:38;1.10;;;1.10;;
68384;SDS011;55336;43.062;25.626;2023-12-04T00:31:04;1.20;;;1.20;;
68384;SDS011;55336;43.062;25.626;2023-12-04T00:33:30;1.50;;;1.50;;
68384;SDS011;55336;43.062;25.626;2023-12-04T00:35:56;1.10;;;1.10;;
68384;SDS011;55336;43.062;25.626;2023-12-04T00:38:23;1.67;;;1.58;;
68384;SDS011;55336;43.062;25.626;2023-12-04T00:40:49;1.63;;;1.52;;
68384;SDS011;55336;43.062;25.626;2023-12-04T00:43:15;1.00;;;1.00;;
68384;SDS011;55336;43.062;25.626;2023-12-04T00:45:41;1.00;;;1.00;;
68384;SDS011;55336;43.062;25.626;2023-12-04T00:48:07;1.00;;;1.00;;
68384;SDS011;55336;43.062;25.626;2023-12-04T00:50:33;1.25;;;1.25;;
68384;SDS011;55336;43.062;25.626;2023-12-04T00:52:59;1.00;;;1.00;;
68384;SDS011;55336;43.062;25.626;2023-12-04T00:55:24;1.20;;;1.20;;
68384;SDS011;55336;43.062;25.626;2023-12-04T00:57:50;1.05;;;1.05;;
68384;SDS011;55336;43.062;25.626;2023-12-04T01:00:16;1.23;;;1.23;;
68384;SDS011;55336;43.062;25.626;2023-12-04T01:02:42;1.17;;;1.17;;
68384;SDS011;55336;43.062;25.626;2023-12-04T01:05:08;1.35;;;1.35;;
68384;SDS011;55336;43.062;25.626;2023-12-04T01:07:34;1.00;;;1.00;;
68384;SDS011;55336;43.062;25.626;2023-12-04T01:10:00;1.30;;;1.30;;
68384;SDS011;55336;43.062;25.626;2023-12-04T01:12:26;1.20;;;1.20;;
68384;SDS011;55336;43.062;25.626;2023-12-04T01:14:51;1.00;;;1.00;;
68384;SDS011;55336;43.062;25.626;2023-12-04T01:17:17;1.77;;;1.67;;
68384;SDS011;55336;43.062;25.626;2023-12-04T01:19:44;1.25;;;1.20;;
68384;SDS011;55336;43.062;25.626;2023-12-04T01:22:10;1.00;;;1.00;;
68384;SDS011;55336;43.062;25.626;2023-12-04T01:24:35;1.08;;;1.08;;
68384;SDS011;55336;43.062;25.626;2023-12-04T01:27:01;1.10;;;1.10;;
68384;SDS011;55336;43.062;25.626;2023-12-04T01:29:27;1.90;;;1.80;;
68384;SDS011;55336;43.062;25.626;2023-12-04T01:31:54;1.00;;;1.00;;
68384;SDS011;55336;43.062;25.626;2023-12-04T01:34:20;1.63;;;1.52;;
68384;SDS011;55336;43.062;25.626;2023-12-04T01:36:45;1.70;;;1.63;;
68384;SDS011;55336;43.062;25.626;2023-12-04T01:39:11;1.33;;;1.33;;
68384;SDS011;55336;43.062;25.626;2023-12-04T01:41:37;1.50;;;1.50;;
68384;SDS011;55336;43.062;25.626;2023-12-04T01:44:03;1.20;;;1.20;;
68384;SDS011;55336;43.062;25.626;2023-12-04T01:46:29;1.38;;;1.38;;
68384;SDS011;55336;43.062;25.626;2023-12-04T01:48:55;1.20;;;1.20;;
68384;SDS011;55336;43.062;25.626;2023-12-04T01:51:21;1.50;;;1.50;;
68384;SDS011;55336;43.062;25.626;2023-12-04T01:53:48;1.50;;;1.50;;
68384;SDS011;55336;43.062;25.626;2023-12-04T01:56:18;1.58;;;1.50;;
68384;SDS011;55336;43.062;25.626;2023-12-04T01:58:45;1.27;;;1.27;;
68384;SDS011;55336;43.062;25.626;2023-12-04T02:01:11;1.33;;;1.33;;
68384;SDS011;55336;43.062;25.626;2023-12-04T02:03:37;1.27;;;1.27;;
68384;SDS011;55336;43.062;25.626;2023-12-04T02:06:05;1.10;;;1.10;;
68384;SDS011;55336;43.062;25.626;2023-12-04T02:08:32;1.35;;;1.35;;
68384;SDS011;55336;43.062;25.626;2023-12-04T02:10:59;1.40;;;1.40;;
68384;SDS011;55336;43.062;25.626;2023-12-04T02:13:24;1.35;;;1.35;;
68384;SDS011;55336;43.062;25.626;2023-12-04T02:15:51;1.40;;;1.40;;
68384;SDS011;55336;43.062;25.626;2023-12-04T02:18:19;2.45;;;1.45;;
68384;SDS011;55336;43.062;25.626;2023-12-04T02:20:47;1.15;;;1.15;;
68384;SDS011;55336;43.062;25.626;2023-12-04T02:23:13;1.10;;;1.10;;
68384;SDS011;55336;43.062;25.626;2023-12-04T02:25:39;1.92;;;1.83;;
68384;SDS011;55336;43.062;25.626;2023-12-04T02:28:05;1.38;;;1.38;;
68384;SDS011;55336;43.062;25.626;2023-12-04T02:30:35;1.50;;;1.40;;
68384;SDS011;55336;43.062;25.626;2023-12-04T02:33:04;1.55;;;1.55;;
68384;SDS011;55336;43.062;25.626;2023-12-04T02:35:31;1.00;;;1.00;;
68384;SDS011;55336;43.062;25.626;2023-12-04T02:38:02;1.45;;;1.42;;
68384;SDS011;55336;43.062;25.626;2023-12-04T02:40:28;1.10;;;1.10;;
68384;SDS011;55336;43.062;25.626;2023-12-04T02:42:55;1.10;;;1.10;;
68384;SDS011;55336;43.062;25.626;2023-12-04T02:45:20;1.13;;;1.13;;
68384;SDS011;55336;43.062;25.626;2023-12-04T02:47:46;1.00;;;1.00;;
68384;SDS011;55336;43.062;25.626;2023-12-04T02:50:12;1.45;;;1.35;;
68384;SDS011;55336;43.062;25.626;2023-12-04T02:52:38;1.58;;;1.30;;
68384;SDS011;55336;43.062;25.626;2023-12-04T02:55:04;1.30;;;1.30;;
68384;SDS011;55336;43.062;25.626;2023-12-04T02:57:30;1.20;;;1.20;;
68384;SDS011;55336;43.062;25.626;2023-12-04T02:59:56;1.25;;;1.25;;
68384;SDS011;55336;43.062;25.626;2023-12-04T03:02:22;1.00;;;1.00;;
68384;SDS011;55336;43.062;25.626;2023-12-04T03:04:48;1.48;;;1.48;;
68384;SDS011;55336;43.062;25.626;2023-12-04T03:07:13;1.30;;;1.30;;
68384;SDS011;55336;43.062;25.626;2023-12-04T03:09:39;1.30;;;1.20;;
68384;SDS011;55336;43.062;25.626;2023-12-04T03:12:05;1.40;;;1.40;;
68384;SDS011;55336;43.062;25.626;2023-12-04T03:14:31;1.20;;;1.20;;
68384;SDS011;55336;43.062;25.626;2023-12-04T03:16:57;1.17;;;1.17;;
68384;SDS011;55336;43.062;25.626;2023-12-04T03:19:23;1.10;;;1.10;;
68384;SDS011;55336;43.062;25.626;2023-12-04T03:21:49;1.17;;;1.17;;
68384;SDS011;55336;43.062;25.626;2023-12-04T03:24:15;1.10;;;1.10;;
68384;SDS011;55336;43.062;25.626;2023-12-04T03:26:41;1.40;;;1.40;;
68384;SDS011;55336;43.062;25.626;2023-12-04T03:29:06;1.20;;;1.20;;
68384;SDS011;55336;43.062;25.626;2023-12-04T03:31:33;1.10;;;1.10;;
68384;SDS011;55336;43.062;25.626;2023-12-04T03:33:59;1.30;;;1.30;;
68384;SDS011;55336;43.062;25.626;2023-12-04T03:36:25;1.20;;;1.20;;
68384;SDS011;55336;43.062;25.626;2023-12-04T03:38:51;1.10;;;1.10;;
68384;SDS011;55336;43.062;25.626;2023-12-04T03:41:17;1.10;;;1.10;;
68384;SDS011;55336;43.062;25.626;2023-12-04T03:43:43;1.30;;;1.30;;
68384;SDS011;55336;43.062;25.626;2023-12-04T03:46:09;1.38;;;1.38;;
68384;SDS011;55336;43.062;25.626;2023-12-04T03:48:35;1.30;;;1.30;;
68384;SDS011;55336;43.062;25.626;2023-12-04T03:51:01;1.20;;;1.20;;
68384;SDS011;55336;43.062;25.626;2023-12-04T03:53:27;1.40;;;1.30;;
68384;SDS011;55336;43.062;25.626;2023-12-04T03:55:53;1.20;;;1.20;;
68384;SDS011;55336;43.062;25.626;2023-12-04T03:58:19;1.30;;;1.30;;
68384;SDS011;55336;43.062;25.626;2023-12-04T04:00:44;1.20;;;1.20;;
68384;SDS011;55336;43.062;25.626;2023-12-04T04:03:10;1.40;;;1.40;;
68384;SDS011;55336;43.062;25.626;2023-12-04T04:05:36;1.40;;;1.40;;
68384;SDS011;55336;43.062;25.626;2023-12-04T04:08:02;1.70;;;1.70;;
68384;SDS011;55336;43.062;25.626;2023-12-04T04:10:30;1.40;;;1.40;;
68384;SDS011;55336;43.062;25.626;2023-12-04T04:12:57;1.60;;;1.60;;
68384;SDS011;55336;43.062;25.626;2023-12-04T04:15:23;1.40;;;1.40;;
68384;SDS011;55336;43.062;25.626;2023-12-04T04:17:49;1.50;;;1.50;;
68384;SDS011;55336;43.062;25.626;2023-12-04T04:20:15;1.52;;;1.52;;
68384;SDS011;55336;43.062;25.626;2023-12-04T04:22:41;1.40;;;1.40;;
68384;SDS011;55336;43.062;25.626;2023-12-04T04:25:07;1.48;;;1.48;;
68384;SDS011;55336;43.062;25.626;2023-12-04T04:27:33;1.45;;;1.45;;
68384;SDS011;55336;43.062;25.626;2023-12-04T04:29:59;1.40;;;1.40;;
68384;SDS011;55336;43.062;25.626;2023-12-04T04:32:25;1.85;;;1.75;;
68384;SDS011;55336;43.062;25.626;2023-12-04T04:34:51;1.88;;;1.85;;
68384;SDS011;55336;43.062;25.626;2023-12-04T04:37:16;1.70;;;1.70;;
68384;SDS011;55336;43.062;25.626;2023-12-04T04:39:42;1.50;;;1.50;;
68384;SDS011;55336;43.062;25.626;2023-12-04T04:42:08;1.48;;;1.48;;
68384;SDS011;55336;43.062;25.626;2023-12-04T04:44:34;1.77;;;1.77;;
68384;SDS011;55336;43.062;25.626;2023-12-04T04:47:00;1.50;;;1.50;;
68384;SDS011;55336;43.062;25.626;2023-12-04T04:49:26;1.63;;;1.63;;
68384;SDS011;55336;43.062;25.626;2023-12-04T04:51:52;1.65;;;1.65;;
68384;SDS011;55336;43.062;25.626;2023-12-04T04:54:17;2.00;;;1.90;;
68384;SDS011;55336;43.062;25.626;2023-12-04T04:56:43;1.52;;;1.52;;
68384;SDS011;55336;43.062;25.626;2023-12-04T04:59:09;1.67;;;1.67;;
68384;SDS011;55336;43.062;25.626;2023-12-04T05:01:36;1.63;;;1.63;;
68384;SDS011;55336;43.062;25.626;2023-12-04T05:04:02;1.80;;;1.80;;
68384;SDS011;55336;43.062;25.626;2023-12-04T05:06:28;1.60;;;1.60;;
68384;SDS011;55336;43.062;25.626;2023-12-04T05:08:54;1.83;;;1.80;;
68384;SDS011;55336;43.062;25.626;2023-12-04T05:11:21;1.80;;;1.80;;
68384;SDS011;55336;43.062;25.626;2023-12-04T05:13:47;1.67;;;1.67;;
68384;SDS011;55336;43.062;25.626;2023-12-04T05:16:15;1.35;;;1.35;;
68384;SDS011;55336;43.062;25.626;2023-12-04T05:18:42;2.20;;;2.10;;
68384;SDS011;55336;43.062;25.626;2023-12-04T05:21:11;1.75;;;1.75;;
68384;SDS011;55336;43.062;25.626;2023-12-04T05:23:37;1.70;;;1.70;;
68384;SDS011;55336;43.062;25.626;2023-12-04T05:26:04;1.70;;;1.70;;
68384;SDS011;55336;43.062;25.626;2023-12-04T05:28:31;1.50;;;1.50;;
68384;SDS011;55336;43.062;25.626;2023-12-04T05:30:57;1.90;;;1.90;;
68384;SDS011;55336;43.062;25.626;2023-12-04T05:33:23;1.60;;;1.60;;
68384;SDS011;55336;43.062;25.626;2023-12-04T05:35:49;1.77;;;1.77;;
68384;SDS011;55336;43.062;25.626;2023-12-04T05:38:18;1.58;;;1.58;;
68384;SDS011;55336;43.062;25.626;2023-12-04T05:40:44;1.67;;;1.67;;
68384;SDS011;55336;43.062;25.626;2023-12-04T05:43:10;1.70;;;1.70;;
68384;SDS011;55336;43.062;25.626;2023-12-04T05:45:36;1.67;;;1.67;;
68384;SDS011;55336;43.062;25.626;2023-12-04T05:48:03;1.65;;;1.65;;
68384;SDS011;55336;43.062;25.626;2023-12-04T05:50:29;1.50;;;1.50;;
68384;SDS011;55336;43.062;25.626;2023-12-04T05:52:55;1.95;;;1.85;;
68384;SDS011;55336;43.062;25.626;2023-12-04T05:55:21;2.15;;;2.05;;
68384;SDS011;55336;43.062;25.626;2023-12-04T05:57:47;1.90;;;1.80;;
68384;SDS011;55336;43.062;25.626;2023-12-04T06:00:13;1.55;;;1.55;;
68384;SDS011;55336;43.062;25.626;2023-12-04T06:02:41;1.98;;;1.88;;
68384;SDS011;55336;43.062;25.626;2023-12-04T06:05:08;1.98;;;1.88;;
68384;SDS011;55336;43.062;25.626;2023-12-04T06:07:34;1.42;;;1.42;;
68384;SDS011;55336;43.062;25.626;2023-12-04T06:10:00;1.85;;;1.75;;
68384;SDS011;55336;43.062;25.626;2023-12-04T06:12:29;1.90;;;1.80;;
68384;SDS011;55336;43.062;25.626;2023-12-04T06:14:55;1.50;;;1.50;;
68384;SDS011;55336;43.062;25.626;2023-12-04T06:17:21;1.98;;;1.80;;
68384;SDS011;55336;43.062;25.626;2023-12-04T06:19:47;1.63;;;1.52;;
68384;SDS011;55336;43.062;25.626;2023-12-04T06:22:13;1.92;;;1.88;;
68384;SDS011;55336;43.062;25.626;2023-12-04T06:24:42;1.70;;;1.70;;
68384;SDS011;55336;43.062;25.626;2023-12-04T06:27:17;2.05;;;1.95;;
68384;SDS011;55336;43.062;25.626;2023-12-04T06:29:48;1.67;;;1.67;;
68384;SDS011;55336;43.062;25.626;2023-12-04T06:32:15;1.60;;;1.60;;
68384;SDS011;55336;43.062;25.626;2023-12-04T06:34:42;1.77;;;1.67;;
68384;SDS011;55336;43.062;25.626;2023-12-04T06:37:12;1.77;;;1.75;;
68384;SDS011;55336;43.062;25.626;2023-12-04T06:39:39;1.88;;;1.80;;
68384;SDS011;55336;43.062;25.626;2023-12-04T06:42:06;1.98;;;1.90;;
68384;SDS011;55336;43.062;25.626;2023-12-04T06:44:33;1.75;;;1.75;;
68384;SDS011;55336;43.062;25.626;2023-12-04T06:46:59;1.90;;;1.80;;
68384;SDS011;55336;43.062;25.626;2023-12-04T06:49:30;1.50;;;1.50;;
68384;SDS011;55336;43.062;25.626;2023-12-04T06:51:57;2.25;;;2.15;;
68384;SDS011;55336;43.062;25.626;2023-12-04T06:54:24;2.00;;;1.85;;
68384;SDS011;55336;43.062;25.626;2023-12-04T06:56:49;1.77;;;1.77;;
68384;SDS011;55336;43.062;25.626;2023-12-04T06:59:15;1.73;;;1.65;;
68384;SDS011;55336;43.062;25.626;2023-12-04T07:01:42;1.80;;;1.73;;
68384;SDS011;55336;43.062;25.626;2023-12-04T07:04:27;1.75;;;1.75;;
68384;SDS011;55336;43.062;25.626;2023-12-04T07:06:53;2.15;;;2.05;;
68384;SDS011;55336;43.062;25.626;2023-12-04T07:09:19;2.25;;;2.15;;
68384;SDS011;55336;43.062;25.626;2023-12-04T07:11:45;2.10;;;2.00;;
68384;SDS011;55336;43.062;25.626;2023-12-04T07:14:11;1.50;;;1.50;;
68384;SDS011;55336;43.062;25.626;2023-12-04T07:16:43;1.50;;;1.50;;
68384;SDS011;55336;43.062;25.626;2023-12-04T07:19:09;2.03;;;1.92;;
68384;SDS011;55336;43.062;25.626;2023-12-04T07:21:36;1.60;;;1.60;;
68384;SDS011;55336;43.062;25.626;2023-12-04T07:24:02;1.60;;;1.60;;
68384;SDS011;55336;43.062;25.626;2023-12-04T07:26:28;1.77;;;1.70;;
68384;SDS011;55336;43.062;25.626;2023-12-04T07:28:55;1.70;;;1.70;;
68384;SDS011;55336;43.062;25.626;2023-12-04T07:31:21;1.30;;;1.30;;
68384;SDS011;55336;43.062;25.626;2023-12-04T07:33:46;1.67;;;1.67;;
68384;SDS011;55336;43.062;25.626;2023-12-04T07:36:12;1.77;;;1.73;;
68384;SDS011;55336;43.062;25.626;2023-12-04T07:38:38;2.13;;;2.03;;
68384;SDS011;55336;43.062;25.626;2023-12-04T07:41:04;2.38;;;2.20;;
68384;SDS011;55336;43.062;25.626;2023-12-04T07:43:30;1.60;;;1.60;;
68384;SDS011;55336;43.062;25.626;2023-12-04T07:45:56;1.55;;;1.55;;
68384;SDS011;55336;43.062;25.626;2023-12-04T07:48:22;1.88;;;1.77;;
68384;SDS011;55336;43.062;25.626;2023-12-04T07:50:48;2.22;;;2.10;;
68384;SDS011;55336;43.062;25.626;2023-12-04T07:53:14;1.40;;;1.40;;
68384;SDS011;55336;43.062;25.626;2023-12-04T07:55:40;1.35;;;1.35;;
68384;SDS011;55336;43.062;25.626;2023-12-04T07:58:05;1.90;;;1.80;;
68384;SDS011;55336;43.062;25.626;2023-12-04T08:00:31;2.22;;;1.80;;
68384;SDS011;55336;43.062;25.626;2023-12-04T08:02:58;1.35;;;1.35;;
68384;SDS011;55336;43.062;25.626;2023-12-04T08:05:23;3.50;;;1.90;;
68384;SDS011;55336;43.062;25.626;2023-12-04T08:07:49;2.10;;;2.00;;
68384;SDS011;55336;43.062;25.626;2023-12-04T08:10:15;1.40;;;1.40;;
68384;SDS011;55336;43.062;25.626;2023-12-04T08:12:43;1.20;;;1.20;;
68384;SDS011;55336;43.062;25.626;2023-12-04T08:15:10;1.85;;;1.75;;
68384;SDS011;55336;43.062;25.626;2023-12-04T08:17:36;1.50;;;1.50;;
68384;SDS011;55336;43.062;25.626;2023-12-04T08:20:02;1.20;;;1.20;;
68384;SDS011;55336;43.062;25.626;2023-12-04T08:22:29;1.92;;;1.83;;
68384;SDS011;55336;43.062;25.626;2023-12-04T08:24:55;1.13;;;1.13;;
68384;SDS011;55336;43.062;25.626;2023-12-04T08:27:20;2.95;;;1.95;;
68384;SDS011;55336;43.062;25.626;2023-12-04T08:29:46;2.00;;;1.90;;
68384;SDS011;55336;43.062;25.626;2023-12-04T08:32:12;1.67;;;1.60;;
68384;SDS011;55336;43.062;25.626;2023-12-04T08:34:38;3.38;;;1.80;;
68384;SDS011;55336;43.062;25.626;2023-12-04T08:37:03;2.15;;;1.40;;
68384;SDS011;55336;43.062;25.626;2023-12-04T08:39:29;1.52;;;1.52;;
68384;SDS011;55336;43.062;25.626;2023-12-04T08:41:55;1.10;;;1.10;;
68384;SDS011;55336;43.062;25.626;2023-12-04T08:44:20;1.70;;;1.60;;
68384;SDS011;55336;43.062;25.626;2023-12-04T08:46:46;1.60;;;1.50;;
68384;SDS011;55336;43.062;25.626;2023-12-04T08:49:12;1.67;;;1.63;;
68384;SDS011;55336;43.062;25.626;2023-12-04T08:51:38;1.58;;;1.48;;
68384;SDS011;55336;43.062;25.626;2023-12-04T08:54:04;1.80;;;1.65;;
68384;SDS011;55336;43.062;25.626;2023-12-04T08:56:30;1.17;;;1.17;;
68384;SDS011;55336;43.062;25.626;2023-12-04T08:58:56;2.10;;;2.00;;
68384;SDS011;55336;43.062;25.626;2023-12-04T09:01:23;1.85;;;1.58;;
68384;SDS011;55336;43.062;25.626;2023-12-04T09:03:48;2.20;;;2.10;;
68384;SDS011;55336;43.062;25.626;2023-12-04T09:06:14;3.15;;;2.30;;
68384;SDS011;55336;43.062;25.626;2023-12-04T09:08:41;1.95;;;1.83;;
68384;SDS011;55336;43.062;25.626;2023-12-04T09:11:07;1.95;;;1.85;;
68384;SDS011;55336;43.062;25.626;2023-12-04T09:13:33;2.45;;;2.22;;
68384;SDS011;55336;43.062;25.626;2023-12-04T09:15:59;2.33;;;1.88;;
68384;SDS011;55336;43.062;25.626;2023-12-04T09:18:25;1.60;;;1.60;;
68384;SDS011;55336;43.062;25.626;2023-12-04T09:20:51;1.98;;;1.88;;
68384;SDS011;55336;43.062;25.626;2023-12-04T09:23:17;1.67;;;1.63;;
68384;SDS011;55336;43.062;25.626;2023-12-04T09:25:43;1.60;;;1.60;;
68384;SDS011;55336;43.062;25.626;2023-12-04T09:28:09;1.70;;;1.60;;
68384;SDS011;55336;43.062;25.626;2023-12-04T09:30:35;1.73;;;1.63;;
68384;SDS011;55336;43.062;25.626;2023-12-04T09:33:02;2.15;;;2.03;;
68384;SDS011;55336;43.062;25.626;2023-12-04T09:35:28;3.20;;;2.47;;
68384;SDS011;55336;43.062;25.626;2023-12-04T09:37:54;1.85;;;1.52;;
68384;SDS011;55336;43.062;25.626;2023-12-04T09:40:21;1.52;;;1.52;;
68384;SDS011;55336;43.062;25.626;2023-12-04T09:42:51;1.67;;;1.60;;
68384;SDS011;55336;43.062;25.626;2023-12-04T09:45:20;1.83;;;1.73;;
68384;SDS011;55336;43.062;25.626;2023-12-04T09:47:51;1.65;;;1.65;;
68384;SDS011;55336;43.062;25.626;2023-12-04T09:50:18;1.17;;;1.17;;
68384;SDS011;55336;43.062;25.626;2023-12-04T09:52:49;1.83;;;1.73;;
68384;SDS011;55336;43.062;25.626;2023-12-04T09:55:16;1.63;;;1.52;;
68384;SDS011;55336;43.062;25.626;2023-12-04T09:57:43;2.05;;;1.58;;
68384;SDS011;55336;43.062;25.626;2023-12-04T10:00:11;1.50;;;1.40;;
68384;SDS011;55336;43.062;25.626;2023-12-04T10:02:41;1.67;;;1.58;;
68384;SDS011;55336;43.062;25.626;2023-12-04T10:05:07;1.60;;;1.50;;
68384;SDS011;55336;43.062;25.626;2023-12-04T10:07:34;2.13;;;2.03;;
68384;SDS011;55336;43.062;25.626;2023-12-04T10:10:01;1.02;;;1.02;;
68384;SDS011;55336;43.062;25.626;2023-12-04T10:12:33;1.58;;;1.52;;
68384;SDS011;55336;43.062;25.626;2023-12-04T10:15:05;1.80;;;1.70;;
68384;SDS011;55336;43.062;25.626;2023-12-04T10:21:31;11.38;;;7.88;;
68384;SDS011;55336;43.062;25.626;2023-12-04T10:29:51;9.68;;;8.48;;
68384;SDS011;55336;43.062;25.626;2023-12-04T10:35:49;8.80;;;7.85;;
68384;SDS011;55336;43.062;25.626;2023-12-04T10:38:21;8.68;;;7.07;;
68384;SDS011;55336;43.062;25.626;2023-12-04T10:41:59;8.82;;;7.43;;
68384;SDS011;55336;43.062;25.626;2023-12-04T10:44:28;11.10;;;6.63;;
68384;SDS011;55336;43.062;25.626;2023-12-04T10:46:56;7.32;;;6.38;;
68384;SDS011;55336;43.062;25.626;2023-12-04T10:49:25;7.70;;;6.70;;
68384;SDS011;55336;43.062;25.626;2023-12-04T10:51:53;7.95;;;6.43;;
68384;SDS011;55336;43.062;25.626;2023-12-04T10:54:21;7.88;;;7.10;;
68384;SDS011;55336;43.062;25.626;2023-12-04T10:56:49;12.65;;;7.80;;
68384;SDS011;55336;43.062;25.626;2023-12-04T10:59:31;8.02;;;6.38;;
68384;SDS011;55336;43.062;25.626;2023-12-04T11:02:20;7.50;;;6.70;;
68384;SDS011;55336;43.062;25.626;2023-12-04T11:04:49;7.32;;;6.60;;
68384;SDS011;55336;43.062;25.626;2023-12-04T11:07:26;7.40;;;6.15;;
68384;SDS011;55336;43.062;25.626;2023-12-04T11:09:55;7.63;;;6.70;;
68384;SDS011;55336;43.062;25.626;2023-12-04T11:12:22;7.70;;;7.00;;
68384;SDS011;55336;43.062;25.626;2023-12-04T11:14:53;7.07;;;6.38;;
68384;SDS011;55336;43.062;25.626;2023-12-04T11:17:23;6.90;;;6.20;;
68384;SDS011;55336;43.062;25.626;2023-12-04T11:22:52;7.05;;;6.03;;
68384;SDS011;55336;43.062;25.626;2023-12-04T11:25:20;6.18;;;5.57;;
68384;SDS011;55336;43.062;25.626;2023-12-04T11:27:50;7.15;;;6.07;;
68384;SDS011;55336;43.062;25.626;2023-12-04T11:30:17;6.40;;;5.80;;
68384;SDS011;55336;43.062;25.626;2023-12-04T11:32:44;7.53;;;5.85;;
68384;SDS011;55336;43.062;25.626;2023-12-04T11:35:15;7.95;;;5.80;;
68384;SDS011;55336;43.062;25.626;2023-12-04T11:37:46;6.82;;;5.63;;
68384;SDS011;55336;43.062;25.626;2023-12-04T11:40:12;5.38;;;4.88;;
68384;SDS011;55336;43.062;25.626;2023-12-04T11:42:41;5.82;;;5.32;;
68384;SDS011;55336;43.062;25.626;2023-12-04T11:45:07;5.60;;;5.10;;
68384;SDS011;55336;43.062;25.626;2023-12-04T11:50:23;8.18;;;6.13;;
68384;SDS011;55336;43.062;25.626;2023-12-04T11:52:50;7.20;;;6.50;;
68384;SDS011;55336;43.062;25.626;2023-12-04T11:55:22;6.50;;;5.45;;
68384;SDS011;55336;43.062;25.626;2023-12-04T11:57:51;6.80;;;5.82;;
68384;SDS011;55336;43.062;25.626;2023-12-04T12:00:20;7.70;;;5.78;;
68384;SDS011;55336;43.062;25.626;2023-12-04T12:02:48;6.30;;;5.28;;
68384;SDS011;55336;43.062;25.626;2023-12-04T12:05:17;6.00;;;5.38;;
68384;SDS011;55336;43.062;25.626;2023-12-04T12:07:44;6.20;;;5.60;;
68384;SDS011;55336;43.062;25.626;2023-12-04T12:10:11;7.50;;;6.72;;
68384;SDS011;55336;43.062;25.626;2023-12-04T12:12:41;9.32;;;6.47;;
68384;SDS011;55336;43.062;25.626;2023-12-04T12:15:10;6.20;;;5.65;;
68384;SDS011;55336;43.062;25.626;2023-12-04T12:17:37;8.50;;;6.07;;
68384;SDS011;55336;43.062;25.626;2023-12-04T12:20:06;8.07;;;5.60;;
68384;SDS011;55336;43.062;25.626;2023-12-04T12:22:34;5.65;;;5.07;;
68384;SDS011;55336;43.062;25.626;2023-12-04T12:25:03;17.70;;;7.72;;
68384;SDS011;55336;43.062;25.626;2023-12-04T12:27:30;6.22;;;5.63;;
68384;SDS011;55336;43.062;25.626;2023-12-04T12:29:56;7.63;;;6.55;;
68384;SDS011;55336;43.062;25.626;2023-12-04T12:34:47;6.63;;;5.70;;
68384;SDS011;55336;43.062;25.626;2023-12-04T12:39:39;7.43;;;5.33;;
68384;SDS011;55336;43.062;25.626;2023-12-04T12:42:25;7.47;;;6.70;;
68384;SDS011;55336;43.062;25.626;2023-12-04T12:44:54;7.18;;;5.90;;
68384;SDS011;55336;43.062;25.626;2023-12-04T12:47:21;6.80;;;5.55;;
68384;SDS011;55336;43.062;25.626;2023-12-04T12:49:48;11.18;;;6.65;;
68384;SDS011;55336;43.062;25.626;2023-12-04T12:54:40;15.75;;;7.30;;
68384;SDS011;55336;43.062;25.626;2023-12-04T12:57:07;9.88;;;6.15;;
68384;SDS011;55336;43.062;25.626;2023-12-04T12:59:34;7.47;;;5.72;;
68384;SDS011;55336;43.062;25.626;2023-12-04T13:04:33;15.65;;;7.22;;
68384;SDS011;55336;43.062;25.626;2023-12-04T13:07:00;6.93;;;5.43;;
68384;SDS011;55336;43.062;25.626;2023-12-04T13:11:51;6.90;;;6.20;;
68384;SDS011;55336;43.062;25.626;2023-12-04T13:16:43;10.82;;;6.72;;
68384;SDS011;55336;43.062;25.626;2023-12-04T13:19:09;12.40;;;7.18;;
68384;SDS011;55336;43.062;25.626;2023-12-04T13:24:01;7.43;;;6.28;;
68384;SDS011;55336;43.062;25.626;2023-12-04T13:26:31;9.93;;;6.75;;
68384;SDS011;55336;43.062;25.626;2023-12-04T13:28:58;9.70;;;7.05;;
68384;SDS011;55336;43.062;25.626;2023-12-04T13:31:25;8.35;;;6.97;;
68384;SDS011;55336;43.062;25.626;2023-12-04T13:33:53;9.85;;;7.18;;
68384;SDS011;55336;43.062;25.626;2023-12-04T13:36:18;9.00;;;7.78;;
68384;SDS011;55336;43.062;25.626;2023-12-04T13:38:44;11.18;;;9.18;;
68384;SDS011;55336;43.062;25.626;2023-12-04T13:41:10;11.02;;;8.60;;
68384;SDS011;55336;43.062;25.626;2023-12-04T13:43:55;11.65;;;8.77;;
68384;SDS011;55336;43.062;25.626;2023-12-04T13:46:21;11.80;;;9.45;;
68384;SDS011;55336;43.062;25.626;2023-12-04T13:48:47;10.93;;;9.73;;
68384;SDS011;55336;43.062;25.626;2023-12-04T13:51:13;12.88;;;9.13;;
68384;SDS011;55336;43.062;25.626;2023-12-04T13:53:39;10.63;;;9.18;;
68384;SDS011;55336;43.062;25.626;2023-12-04T13:56:10;11.15;;;8.68;;
68384;SDS011;55336;43.062;25.626;2023-12-04T13:58:45;16.48;;;9.82;;
68384;SDS011;55336;43.062;25.626;2023-12-04T14:01:14;11.82;;;10.43;;
68384;SDS011;55336;43.062;25.626;2023-12-04T14:03:41;11.23;;;9.98;;
68384;SDS011;55336;43.062;25.626;2023-12-04T14:09:54;11.50;;;9.95;;
68384;SDS011;55336;43.062;25.626;2023-12-04T14:16:46;11.23;;;9.57;;
68384;SDS011;55336;43.062;25.626;2023-12-04T14:19:46;17.05;;;13.50;;
68384;SDS011;55336;43.062;25.626;2023-12-04T14:22:13;16.85;;;11.98;;
68384;SDS011;55336;43.062;25.626;2023-12-04T14:24:42;13.60;;;11.23;;
68384;SDS011;55336;43.062;25.626;2023-12-04T14:27:08;13.15;;;10.82;;
68384;SDS011;55336;43.062;25.626;2023-12-04T14:29:35;27.88;;;12.32;;
68384;SDS011;55336;43.062;25.626;2023-12-04T14:32:01;12.88;;;10.30;;
68384;SDS011;55336;43.062;25.626;2023-12-04T14:34:29;14.13;;;10.93;;
68384;SDS011;55336;43.062;25.626;2023-12-04T14:37:00;18.17;;;11.35;;
68384;SDS011;55336;43.062;25.626;2023-12-04T14:39:26;11.93;;;10.38;;
68384;SDS011;55336;43.062;25.626;2023-12-04T14:41:54;14.18;;;10.88;;
68384;SDS011;55336;43.062;25.626;2023-12-04T14:44:20;13.60;;;11.88;;
68384;SDS011;55336;43.062;25.626;2023-12-04T14:46:46;16.63;;;11.40;;
68384;SDS011;55336;43.062;25.626;2023-12-04T14:49:12;23.17;;;12.50;;
68384;SDS011;55336;43.062;25.626;2023-12-04T14:51:38;30.83;;;13.57;;
68384;SDS011;55336;43.062;25.626;2023-12-04T14:54:04;30.98;;;13.25;;
68384;SDS011;55336;43.062;25.626;2023-12-04T14:56:46;20.80;;;13.07;;
68384;SDS011;55336;43.062;25.626;2023-12-04T14:59:31;22.33;;;13.00;;
68384;SDS011;55336;43.062;25.626;2023-12-04T15:02:15;20.58;;;12.95;;
68384;SDS011;55336;43.062;25.626;2023-12-04T15:05:01;22.60;;;14.50;;
68384;SDS011;55336;43.062;25.626;2023-12-04T15:07:33;16.95;;;13.75;;
68384;SDS011;55336;43.062;25.626;2023-12-04T15:10:14;21.05;;;13.60;;
68384;SDS011;55336;43.062;25.626;2023-12-04T15:12:42;17.70;;;13.63;;
68384;SDS011;55336;43.062;25.626;2023-12-04T15:15:26;13.32;;;11.93;;
68384;SDS011;55336;43.062;25.626;2023-12-04T15:18:24;15.25;;;12.18;;